East Fayetteville, North Carolina
Current Conditions -  °F | °C
As of 9:53 AM on Thursday 30 Oct 2014 (Local Time) from KFAY Reporting Station
Clear Clear  
Wind Chill: 62°   Ceiling: Unl
Heat Index: 62°   Visibility: 10mi
Dew Point: 51°   Wind: 12mph
Humidity: 67%   Direction: 20°NNE
Pressure: 30.04"   Gusts: NA
Location:  35.072°N, 78.8095°W
Report Text: KFAY 301353Z AUTO 02010KT 10SM CLR 17/11 A3004 RMK AO2 SLP165 T01670106
Loading
Personal Weather Stations






























Interactive Weather Map
Tropical Storm Tracking
New forecast layout! Learn more

10-Day Weather Forecast

Advertisements
Track Severe Weather on mobile